Time;durP1;ratioP1;P1;durP2;ratioP2;P2;SDS_P1;SDS_P2;PMS_P1;PMS_P2;Temp;Humidity;BMP_temperature;BMP_pressure;BME280_temperature;BME280_humidity;BME280_pressure;Samples;Min_cycle;Max_cycle;Signal;HPM_P1;HPM_P2
2023/02/23 00:00:28;;;;;;;3.67;1.60;;;19.80;53.10;;;;;;6266476;28;20064;-67
2023/02/23 00:03:29;;;;;;;3.30;1.38;;;19.80;53.20;;;;;;6267437;28;20045;-67
2023/02/23 00:06:32;;;;;;;2.70;1.60;;;19.80;53.10;;;;;;6266453;28;20028;-67
2023/02/23 00:09:35;;;;;;;5.05;1.70;;;19.80;53.80;;;;;;6267663;28;20025;-67
2023/02/23 00:12:36;;;;;;;2.17;1.25;;;19.80;53.20;;;;;;6272621;28;20021;-67
2023/02/23 00:15:36;;;;;;;2.80;1.55;;;19.80;53.10;;;;;;6272854;28;20145;-67
2023/02/23 00:18:43;;;;;;;2.33;1.30;;;19.80;53.20;;;;;;6272031;28;20422;-67
2023/02/23 00:21:44;;;;;;;2.92;1.67;;;19.80;53.20;;;;;;6272636;28;20017;-67
2023/02/23 00:24:46;;;;;;;2.72;1.50;;;19.80;53.10;;;;;;6272700;28;20021;-67
2023/02/23 00:27:47;;;;;;;3.28;1.80;;;19.80;53.10;;;;;;6272534;28;20017;-67
2023/02/23 00:30:47;;;;;;;4.00;1.83;;;19.80;53.10;;;;;;6270987;28;20021;-67
2023/02/23 00:33:50;;;;;;;5.03;1.83;;;19.80;53.20;;;;;;6272458;28;20040;-68
2023/02/23 00:36:55;;;;;;;3.75;1.75;;;19.80;53.20;;;;;;6272587;28;20017;-67
2023/02/23 00:39:56;;;;;;;2.83;1.65;;;19.80;53.20;;;;;;6271178;28;20091;-67
2023/02/23 00:42:57;;;;;;;3.22;1.63;;;19.80;53.10;;;;;;6271937;28;20394;-67
2023/02/23 00:45:57;;;;;;;4.20;1.63;;;19.80;53.20;;;;;;6272008;28;20033;-67
2023/02/23 00:48:59;;;;;;;2.05;1.35;;;19.80;53.10;;;;;;6272024;28;20036;-68
2023/02/23 00:51:59;;;;;;;3.63;1.70;;;19.80;53.20;;;;;;6271779;28;20040;-67
2023/02/23 00:55:00;;;;;;;3.33;1.65;;;19.80;53.20;;;;;;6271975;28;20048;-67
2023/02/23 00:58:03;;;;;;;4.97;1.83;;;19.80;53.10;;;;;;6270564;28;20112;-67
2023/02/23 01:01:09;;;;;;;5.65;2.10;;;19.80;53.10;;;;;;6271368;28;20021;-67
2023/02/23 01:04:11;;;;;;;4.45;1.92;;;19.80;53.10;;;;;;6271837;28;20029;-67
2023/02/23 01:07:12;;;;;;;5.32;1.67;;;19.80;53.10;;;;;;6270094;28;20548;-71
2023/02/23 01:10:18;;;;;;;2.45;1.60;;;19.80;53.10;;;;;;6271748;28;20021;-67
2023/02/23 01:13:20;;;;;;;4.03;1.90;;;19.80;53.10;;;;;;6269744;28;20029;-67
2023/02/23 01:16:27;;;;;;;2.38;1.30;;;19.80;53.10;;;;;;6271412;28;20028;-67
2023/02/23 01:19:28;;;;;;;4.20;1.77;;;19.80;53.10;;;;;;6270996;28;20102;-67
2023/02/23 01:22:30;;;;;;;3.75;2.22;;;19.80;53.10;;;;;;6270266;28;20033;-67
2023/02/23 01:25:32;;;;;;;4.50;2.20;;;19.80;53.10;;;;;;6269884;28;20147;-67
2023/02/23 01:28:33;;;;;;;7.25;2.38;;;19.80;53.00;;;;;;6270898;28;20032;-67
2023/02/23 01:31:35;;;;;;;2.47;1.58;;;19.80;53.10;;;;;;6270699;28;20021;-67
2023/02/23 01:34:36;;;;;;;2.78;1.55;;;19.80;53.10;;;;;;6270544;28;20391;-67
2023/02/23 01:37:39;;;;;;;3.33;1.75;;;19.80;53.10;;;;;;6270817;28;20033;-67
2023/02/23 01:40:42;;;;;;;2.92;1.77;;;19.80;53.00;;;;;;6269306;28;20029;-67
2023/02/23 01:43:59;;;;;;;3.55;1.92;;;19.80;53.00;;;;;;6270590;28;20033;-67
2023/02/23 01:47:00;;;;;;;3.70;2.00;;;19.80;53.10;;;;;;6270505;28;20028;-67
2023/02/23 01:50:01;;;;;;;3.05;1.80;;;19.80;53.10;;;;;;6270996;28;20340;-67
2023/02/23 01:53:02;;;;;;;3.55;1.80;;;19.80;53.10;;;;;;6270052;28;20024;-67
2023/02/23 01:56:11;;;;;;;3.35;1.75;;;19.80;53.00;;;;;;6270568;28;20032;-67
2023/02/23 01:59:14;;;;;;;4.00;1.85;;;19.80;53.10;;;;;;6270309;28;20029;-67
2023/02/23 02:02:21;;;;;;;3.35;1.73;;;19.80;53.00;;;;;;6270252;28;20025;-67
2023/02/23 02:05:22;;;;;;;3.22;1.90;;;19.80;53.10;;;;;;6270153;28;20052;-67
2023/02/23 02:08:25;;;;;;;3.42;1.80;;;19.80;53.10;;;;;;6269958;28;20516;-67
2023/02/23 02:11:35;;;;;;;2.47;1.42;;;19.80;53.10;;;;;;6268903;28;20035;-67
2023/02/23 02:14:36;;;;;;;3.38;1.80;;;19.80;53.70;;;;;;6269937;28;20028;-68
2023/02/23 02:17:58;;;;;;;3.70;2.17;;;19.80;53.10;;;;;;6270083;28;20040;-67
2023/02/23 02:21:21;;;;;;;2.78;1.70;;;19.80;53.10;;;;;;6269793;28;20059;-67
2023/02/23 02:24:59;;;;;;;3.58;1.83;;;19.80;53.10;;;;;;6269046;28;20096;-67
2023/02/23 02:28:16;;;;;;;3.20;1.70;;;19.80;53.10;;;;;;6268058;28;20025;-68
2023/02/23 02:31:41;;;;;;;3.95;2.10;;;19.80;53.10;;;;;;6267893;28;20056;-67
2023/02/23 02:34:57;;;;;;;4.07;2.42;;;19.80;53.10;;;;;;6267559;28;20665;-68
2023/02/23 02:38:09;;;;;;;3.38;1.60;;;19.80;53.10;;;;;;6269078;28;20029;-67
2023/02/23 02:41:19;;;;;;;3.60;2.08;;;19.80;53.00;;;;;;6268033;28;20031;-67
2023/02/23 02:44:51;;;;;;;3.40;1.92;;;19.80;53.10;;;;;;6268995;28;20401;-67
2023/02/23 02:48:03;;;;;;;3.33;1.95;;;19.80;53.00;;;;;;6269138;28;20877;-67
2023/02/23 02:51:15;;;;;;;3.92;1.73;;;19.80;53.00;;;;;;6269199;28;20582;-67
2023/02/23 02:54:31;;;;;;;4.15;1.90;;;19.80;53.00;;;;;;6268985;28;20017;-67
2023/02/23 02:57:32;;;;;;;4.80;2.08;;;19.80;53.00;;;;;;6268682;28;20025;-67
2023/02/23 04:19:28;;;;;;;4.25;2.30;;;19.80;53.00;;;;;;6267372;28;20045;-69
2023/02/23 04:22:29;;;;;;;3.40;1.90;;;19.80;53.10;;;;;;6267645;28;20114;-69
2023/02/23 04:25:30;;;;;;;3.72;1.90;;;19.80;53.00;;;;;;6267346;28;20024;-69
2023/02/23 04:28:31;;;;;;;4.93;2.38;;;19.80;53.10;;;;;;6266179;28;20025;-68
2023/02/23 04:31:31;;;;;;;4.03;2.17;;;19.80;53.10;;;;;;6265882;28;20028;-68
2023/02/23 04:34:32;;;;;;;2.92;1.88;;;19.80;53.70;;;;;;6267807;28;20468;-69
2023/02/23 04:37:33;;;;;;;4.68;2.28;;;19.80;53.00;;;;;;6266545;28;20419;-69
2023/02/23 04:40:34;;;;;;;3.40;2.17;;;19.80;52.90;;;;;;6266229;28;20033;-69
2023/02/23 04:43:34;;;;;;;5.43;2.42;;;19.80;53.00;;;;;;6267314;28;20021;-69
2023/02/23 04:46:35;;;;;;;4.32;2.35;;;19.80;53.00;;;;;;6267810;28;20518;-68
2023/02/23 04:49:37;;;;;;;5.35;2.40;;;19.80;53.00;;;;;;6267558;28;20427;-66
2023/02/23 04:52:37;;;;;;;5.60;2.53;;;19.80;53.00;;;;;;6267122;28;20028;-66
2023/02/23 04:55:38;;;;;;;3.97;2.20;;;19.80;53.00;;;;;;6266099;28;20426;-67
2023/02/23 04:58:39;;;;;;;3.80;2.20;;;19.80;52.90;;;;;;6270494;28;20086;-66
2023/02/23 05:01:39;;;;;;;4.57;2.40;;;19.80;53.00;;;;;;6271648;28;20021;-67
2023/02/23 05:04:40;;;;;;;4.90;2.50;;;19.80;52.90;;;;;;6270202;28;20028;-67
2023/02/23 05:07:41;;;;;;;3.28;2.03;;;19.80;52.90;;;;;;6271412;28;20023;-69
2023/02/23 05:10:44;;;;;;;4.63;2.40;;;19.80;52.90;;;;;;6271355;28;20477;-69
2023/02/23 05:13:45;;;;;;;3.65;2.05;;;19.80;52.90;;;;;;6271267;28;20025;-69
2023/02/23 05:16:46;;;;;;;3.15;2.20;;;19.80;53.00;;;;;;6271570;28;20024;-69
2023/02/23 05:19:46;;;;;;;3.40;2.33;;;19.80;53.00;;;;;;6271088;28;20052;-69
2023/02/23 05:22:47;;;;;;;4.78;2.25;;;19.80;53.00;;;;;;6271060;28;20025;-68
2023/02/23 05:25:48;;;;;;;3.70;1.85;;;19.80;53.00;;;;;;6270841;28;20014;-69
2023/02/23 05:28:48;;;;;;;4.15;2.25;;;19.80;53.00;;;;;;6271403;28;20043;-73
2023/02/23 05:31:49;;;;;;;4.65;2.47;;;19.80;53.00;;;;;;6271087;28;20048;-73
2023/02/23 05:34:50;;;;;;;3.47;1.98;;;19.80;53.00;;;;;;6269988;28;20074;-73
2023/02/23 05:37:51;;;;;;;5.03;2.53;;;19.80;53.00;;;;;;6270075;28;20132;-73
2023/02/23 05:40:52;;;;;;;5.50;2.35;;;19.80;53.10;;;;;;6270608;28;20025;-73
2023/02/23 05:43:54;;;;;;;3.40;2.22;;;19.80;53.10;;;;;;6271354;28;20058;-73
2023/02/23 05:46:54;;;;;;;2.83;1.98;;;19.80;53.10;;;;;;6270934;28;20025;-74
2023/02/23 05:49:55;;;;;;;4.32;2.50;;;19.90;53.20;;;;;;6272022;28;20028;-73
2023/02/23 05:52:56;;;;;;;4.03;2.28;;;19.90;53.20;;;;;;6270846;28;20025;-74
2023/02/23 05:55:56;;;;;;;4.18;2.20;;;19.90;53.90;;;;;;6270441;28;20075;-73
2023/02/23 05:58:57;;;;;;;3.55;2.10;;;19.90;53.20;;;;;;6269984;28;20025;-73
2023/02/23 06:01:58;;;;;;;4.75;2.40;;;19.90;53.20;;;;;;6258691;28;20037;-71
2023/02/23 06:04:59;;;;;;;3.83;2.30;;;19.90;53.30;;;;;;6262167;28;20074;-71
2023/02/23 06:08:00;;;;;;;4.82;2.50;;;19.90;53.20;;;;;;6269892;28;20419;-73
2023/02/23 06:11:02;;;;;;;3.42;2.30;;;19.90;53.30;;;;;;6268905;28;20021;-73
2023/02/23 06:14:03;;;;;;;3.30;2.00;;;19.90;53.30;;;;;;6268743;28;20025;-73
2023/02/23 06:17:04;;;;;;;3.47;2.53;;;19.90;53.20;;;;;;6269005;28;20398;-73
2023/02/23 06:20:06;;;;;;;3.25;2.15;;;19.90;53.20;;;;;;6268143;28;20135;-73
2023/02/23 06:23:06;;;;;;;3.05;2.00;;;19.90;53.30;;;;;;6269646;28;20021;-73
2023/02/23 06:26:07;;;;;;;4.32;2.40;;;19.90;53.20;;;;;;6268106;28;20032;-73
2023/02/23 06:29:08;;;;;;;3.53;2.22;;;19.90;53.30;;;;;;6269650;28;20032;-73
2023/02/23 06:32:09;;;;;;;2.95;1.85;;;19.90;53.20;;;;;;6269608;28;20037;-73
2023/02/23 06:35:10;;;;;;;3.83;2.28;;;19.90;53.20;;;;;;6269494;28;20025;-74
2023/02/23 06:38:11;;;;;;;4.35;2.15;;;19.90;53.20;;;;;;6269422;28;20056;-73
2023/02/23 06:41:11;;;;;;;3.80;2.30;;;19.90;53.20;;;;;;6268068;28;20032;-72
2023/02/23 06:44:12;;;;;;;4.82;2.67;;;19.90;53.30;;;;;;6269243;28;20025;-72
2023/02/23 06:47:13;;;;;;;4.75;2.55;;;19.90;53.20;;;;;;6269251;28;20056;-73
2023/02/23 06:50:14;;;;;;;4.55;2.22;;;19.90;53.20;;;;;;6269066;28;20048;-73
2023/02/23 06:53:15;;;;;;;3.92;2.00;;;19.90;53.20;;;;;;6269225;28;20080;-73
2023/02/23 06:56:15;;;;;;;4.25;2.22;;;19.90;53.20;;;;;;6268092;28;20037;-74
2023/02/23 06:59:16;;;;;;;4.15;2.40;;;19.90;53.20;;;;;;6260112;28;20104;-75
2023/02/23 07:02:17;;;;;;;4.35;2.40;;;19.90;53.20;;;;;;6270309;28;20100;-74
2023/02/23 07:05:17;;;;;;;3.85;2.17;;;19.90;53.20;;;;;;6270602;28;20053;-75
2023/02/23 07:08:18;;;;;;;4.15;2.58;;;19.90;53.20;;;;;;6271481;28;20021;-75
2023/02/23 07:11:19;;;;;;;6.95;2.92;;;19.90;53.20;;;;;;6294862;28;20095;-75
2023/02/23 07:14:20;;;;;;;6.25;2.30;;;19.90;53.90;;;;;;6280257;28;20024;-75
2023/02/23 07:17:20;;;;;;;3.92;2.63;;;19.90;53.20;;;;;;6284461;28;20074;-75
2023/02/23 07:20:21;;;;;;;5.45;2.30;;;19.90;53.10;;;;;;6294107;28;20071;-75
2023/02/23 07:23:22;;;;;;;6.68;2.60;;;19.90;53.10;;;;;;6288575;28;20056;-73
2023/02/23 07:26:23;;;;;;;5.22;2.40;;;19.90;53.20;;;;;;6258196;28;20096;-75
2023/02/23 07:29:26;;;;;;;4.80;2.53;;;19.90;53.10;;;;;;6270094;28;20485;-75
2023/02/23 07:32:28;;;;;;;3.45;2.28;;;19.90;53.10;;;;;;6266442;28;20028;-74
2023/02/23 07:35:28;;;;;;;4.90;2.75;;;19.90;53.10;;;;;;6270062;28;20055;-75
2023/02/23 07:38:29;;;;;;;4.75;2.60;;;19.90;53.10;;;;;;6279340;28;20028;-75
2023/02/23 07:41:30;;;;;;;3.00;2.10;;;19.90;53.10;;;;;;6269938;28;20422;-75
2023/02/23 07:44:31;;;;;;;6.15;3.10;;;19.90;53.10;;;;;;6268181;28;20469;-75
2023/02/23 07:47:33;;;;;;;4.85;2.65;;;19.90;53.10;;;;;;6269859;28;20040;-75
2023/02/23 07:50:34;;;;;;;3.70;2.20;;;19.90;53.10;;;;;;6285939;28;20013;-75
2023/02/23 07:53:35;;;;;;;5.88;3.03;;;19.90;53.10;;;;;;6273995;28;20393;-75
2023/02/23 07:56:36;;;;;;;4.80;2.40;;;19.90;53.10;;;;;;6269813;28;20079;-75
2023/02/23 07:59:37;;;;;;;3.97;2.30;;;19.90;53.20;;;;;;6269823;28;20024;-74
2023/02/23 08:02:39;;;;;;;6.35;2.70;;;19.90;53.10;;;;;;6265613;28;20505;-75
2023/02/23 08:05:39;;;;;;;7.82;3.65;;;19.90;53.10;;;;;;6259603;28;20481;-75
2023/02/23 08:08:40;;;;;;;5.20;2.53;;;19.90;53.10;;;;;;6269258;28;20075;-75
2023/02/23 08:11:41;;;;;;;5.53;2.90;;;19.90;53.20;;;;;;6265912;28;20025;-75
2023/02/23 08:14:42;;;;;;;5.85;2.78;;;19.90;53.10;;;;;;6254737;28;20768;-74
2023/02/23 08:17:43;;;;;;;5.65;2.90;;;19.90;53.10;;;;;;6269646;28;20033;-75
2023/02/23 08:20:43;;;;;;;6.95;2.75;;;19.90;53.10;;;;;;6282402;28;20897;-75
2023/02/23 08:23:44;;;;;;;5.93;2.80;;;19.90;53.10;;;;;;6284535;28;20392;-74
2023/02/23 08:26:45;;;;;;;5.63;2.65;;;19.90;53.10;;;;;;6244399;28;20017;-73
2023/02/23 08:29:46;;;;;;;4.93;2.40;;;19.90;53.10;;;;;;6246049;28;20100;-74
2023/02/23 08:32:47;;;;;;;4.43;2.42;;;19.90;53.10;;;;;;6249526;28;20116;-73
2023/02/23 08:35:53;;;;;;;4.90;2.80;;;19.90;53.10;;;;;;6250547;28;20021;-73
2023/02/23 08:38:54;;;;;;;6.13;3.17;;;19.90;53.10;;;;;;6250316;28;20029;-71
2023/02/23 08:41:55;;;;;;;4.35;2.67;;;19.90;53.10;;;;;;6250437;28;20033;-73
2023/02/23 08:45:00;;;;;;;3.78;2.58;;;19.90;53.20;;;;;;6250298;28;20026;-71
2023/02/23 08:48:02;;;;;;;3.73;1.60;;;19.90;53.20;;;;;;6250067;28;20056;-72
2023/02/23 08:51:03;;;;;;;5.18;2.78;;;19.90;53.10;;;;;;6250341;28;20894;-73
2023/02/23 08:54:08;;;;;;;4.90;2.47;;;19.90;53.20;;;;;;6250325;28;20395;-73
2023/02/23 08:57:10;;;;;;;3.58;2.47;;;19.90;53.10;;;;;;6259204;28;20056;-73
2023/02/23 09:00:15;;;;;;;5.28;2.83;;;19.90;53.10;;;;;;6274186;28;20029;-73
2023/02/23 09:03:18;;;;;;;5.47;2.80;;;19.90;53.10;;;;;;6274374;28;20547;-73
2023/02/23 09:06:24;;;;;;;4.93;2.83;;;19.90;53.10;;;;;;6273816;28;20025;-73
2023/02/23 09:09:26;;;;;;;5.82;3.00;;;19.90;53.10;;;;;;6274036;28;20104;-74
2023/02/23 09:12:59;;;;;;;;;;;;;;;;;;;;;
2023/02/23 09:16:02;;;;;;;5.15;3.00;;;19.90;53.10;;;;;;6273905;28;20105;-70
2023/02/23 09:19:05;;;;;;;5.20;2.92;;;19.90;53.70;;;;;;6273334;28;20049;-68
2023/02/23 09:22:07;;;;;;;5.38;2.95;;;19.90;53.10;;;;;;6273800;28;20025;-69
2023/02/23 09:25:11;;;;;;;4.43;2.80;;;19.90;53.10;;;;;;6271951;28;20108;-69
2023/02/23 09:28:21;;;;;;;4.85;2.55;;;19.90;53.10;;;;;;6272146;28;20021;-69
2023/02/23 09:31:24;;;;;;;5.72;2.97;;;19.90;53.10;;;;;;6273592;28;20016;-71
2023/02/23 09:34:29;;;;;;;4.18;2.80;;;19.90;53.10;;;;;;6273861;28;20064;-71
2023/02/23 09:37:35;;;;;;;5.85;3.30;;;19.90;53.00;;;;;;6273430;28;20393;-71
2023/02/23 09:40:48;;;;;;;5.50;2.72;;;19.90;53.10;;;;;;6273346;28;20049;-71
2023/02/23 09:43:54;;;;;;;4.05;2.35;;;19.90;53.10;;;;;;6271194;28;20039;-70
2023/02/23 09:47:16;;;;;;;4.63;2.90;;;19.90;53.10;;;;;;6272886;28;20024;-71
2023/02/23 09:50:24;;;;;;;5.47;2.88;;;19.90;53.10;;;;;;6273010;28;20021;-71
2023/02/23 09:53:47;;;;;;;5.07;2.95;;;19.90;53.00;;;;;;6271885;28;20025;-71
2023/02/23 09:56:55;;;;;;;5.13;2.65;;;19.90;53.10;;;;;;6273165;28;20558;-71
2023/02/23 10:00:14;;;;;;;4.90;2.97;;;19.90;52.90;;;;;;6273313;28;20025;-71
2023/02/23 10:03:36;;;;;;;4.32;2.80;;;19.90;53.10;;;;;;6271490;28;20440;-71
2023/02/23 10:06:44;;;;;;;4.72;2.80;;;19.90;53.00;;;;;;6273002;28;20025;-70
2023/02/23 10:09:59;;;;;;;3.80;2.40;;;19.90;53.00;;;;;;6272652;28;20481;-68
2023/02/23 10:13:37;;;;;;;5.03;2.88;;;19.90;53.00;;;;;;6272597;28;20025;-71
2023/02/23 10:16:54;;;;;;;4.50;2.90;;;19.90;53.00;;;;;;6272952;28;20052;-71
2023/02/23 10:20:42;;;;;;;4.28;2.63;;;19.90;53.10;;;;;;6272136;28;20043;-71
2023/02/23 10:24:24;;;;;;;4.20;2.75;;;19.90;53.10;;;;;;6270790;28;20041;-71
2023/02/23 10:27:46;;;;;;;5.40;2.75;;;19.90;53.00;;;;;;6254903;28;20390;-71
2023/02/23 10:30:49;;;;;;;5.38;2.75;;;19.90;53.00;;;;;;6268333;28;20393;-71
2023/02/23 10:33:54;;;;;;;4.68;2.65;;;19.90;53.70;;;;;;6279120;28;20654;-71
2023/02/23 10:37:03;;;;;;;4.53;2.60;;;19.90;53.00;;;;;;6271399;28;20025;-71
2023/02/23 10:40:05;;;;;;;4.57;2.70;;;19.90;53.00;;;;;;6246356;28;20155;-70
2023/02/23 10:43:10;;;;;;;5.70;2.97;;;19.90;53.10;;;;;;6254512;28;20071;-71
2023/02/23 10:46:20;;;;;;;5.25;2.78;;;20.00;53.20;;;;;;6270823;28;20486;-69
2023/02/23 10:49:39;;;;;;;4.40;2.88;;;20.00;53.20;;;;;;6287065;28;20028;-71
2023/02/23 10:52:48;;;;;;;4.22;2.53;;;19.90;53.10;;;;;;6291981;28;20024;-71
2023/02/23 10:56:09;;;;;;;7.45;2.70;;;19.90;53.10;;;;;;6271794;28;20032;-71
2023/02/23 10:59:20;;;;;;;4.88;2.40;;;19.90;53.10;;;;;;6253466;28;20449;-71
2023/02/23 11:02:29;;;;;;;3.85;2.47;;;20.00;53.20;;;;;;6266490;28;20078;-71
2023/02/23 11:17:34;;;;;;;7.03;3.17;;;20.30;52.40;;;;;;6271144;28;20017;-72
2023/02/23 11:20:42;;;;;;;6.82;3.40;;;20.40;52.30;;;;;;6270469;28;20095;-72
2023/02/23 11:23:44;;;;;;;6.00;3.78;;;20.40;52.30;;;;;;6277155;28;20039;-71
2023/02/23 11:26:51;;;;;;;6.28;3.03;;;20.40;52.20;;;;;;6295214;28;20362;-71
2023/02/23 11:29:58;;;;;;;7.03;3.88;;;20.50;52.10;;;;;;6279751;28;20021;-71
2023/02/23 11:33:09;;;;;;;9.57;3.80;;;20.50;52.20;;;;;;6269472;28;20036;-71
2023/02/23 11:36:30;;;;;;;5.68;3.38;;;20.40;52.00;;;;;;6293478;28;20020;-71
2023/02/23 11:39:32;;;;;;;7.07;3.83;;;20.40;52.10;;;;;;6285302;28;20110;-70
2023/02/23 11:42:33;;;;;;;7.05;4.28;;;20.40;52.10;;;;;;6269899;28;20021;-70
2023/02/23 11:45:44;;;;;;;6.45;4.20;;;20.40;52.40;;;;;;6286155;28;20028;-71
2023/02/23 11:49:03;;;;;;;10.52;5.70;;;20.40;52.60;;;;;;6287809;28;20410;-71
2023/02/23 11:52:14;;;;;;;10.70;5.57;;;20.30;52.60;;;;;;6270210;28;20437;-72
2023/02/23 11:55:18;;;;;;;8.35;5.53;;;20.20;52.80;;;;;;6283682;28;20023;-72
2023/02/23 11:58:23;;;;;;;7.97;4.97;;;20.20;53.10;;;;;;6294173;28;20033;-73
2023/02/23 12:01:49;;;;;;;10.67;4.90;;;20.10;53.10;;;;;;6294617;28;20025;-71
2023/02/23 12:05:23;;;;;;;10.55;5.68;;;20.10;52.90;;;;;;6271854;28;20103;-71
2023/02/23 12:08:41;;;;;;;11.38;5.20;;;20.10;53.20;;;;;;6274612;28;20033;-72
2023/02/23 12:11:50;;;;;;;6.55;4.18;;;20.00;53.10;;;;;;6298678;28;20036;-72
2023/02/23 12:15:19;;;;;;;11.82;4.53;;;20.00;53.10;;;;;;6285024;28;20017;-70
2023/02/23 12:18:42;;;;;;;16.08;6.07;;;20.00;53.20;;;;;;6292849;28;20028;-71
2023/02/23 12:22:10;;;;;;;10.73;6.30;;;20.00;53.70;;;;;;6271855;28;20099;-72
2023/02/23 12:25:27;;;;;;;15.35;8.52;;;19.90;53.60;;;;;;6274227;28;20051;-71
2023/02/23 12:28:39;;;;;;;211.13;82.82;;;19.90;53.90;;;;;;6274621;28;20036;-70
2023/02/23 12:31:50;;;;;;;251.30;93.95;;;19.80;53.60;;;;;;6274391;28;20025;-72
2023/02/23 12:34:57;;;;;;;126.55;49.35;;;19.70;52.20;;;;;;6273954;28;20027;-71
2023/02/23 12:38:05;;;;;;;153.07;60.17;;;19.60;52.80;;;;;;6273207;28;20141;-71
2023/02/23 12:41:11;;;;;;;137.52;54.03;;;19.60;52.50;;;;;;6273810;28;20052;-69
2023/02/23 12:44:49;;;;;;;117.60;48.88;;;19.60;52.20;;;;;;6273732;28;20497;-71
2023/02/23 12:48:01;;;;;;;101.80;43.92;;;19.50;51.40;;;;;;6274026;28;20025;-71
2023/02/23 12:51:14;;;;;;;106.63;42.97;;;19.50;51.00;;;;;;6271999;28;20108;-71
2023/02/23 12:54:16;;;;;;;102.28;39.90;;;19.50;51.40;;;;;;6273864;28;20181;-72
2023/02/23 12:57:49;;;;;;;95.32;40.60;;;19.40;51.10;;;;;;6272394;28;20033;-72
2023/02/23 13:01:03;;;;;;;82.63;35.63;;;19.40;51.10;;;;;;6273242;28;20108;-71
2023/02/23 13:04:22;;;;;;;78.47;33.10;;;19.40;50.40;;;;;;6272850;28;20113;-74
2023/02/23 13:07:37;;;;;;;80.55;34.10;;;19.50;50.30;;;;;;6273129;28;20032;-73
2023/02/23 13:10:51;;;;;;;87.55;34.38;;;19.50;50.60;;;;;;6267273;28;20035;-70
2023/02/23 13:14:03;;;;;;;74.95;31.77;;;19.50;50.70;;;;;;6275672;28;20029;-71
2023/02/23 13:17:30;;;;;;;64.18;27.13;;;19.50;50.60;;;;;;6286121;28;20107;-71
2023/02/23 13:20:41;;;;;;;68.28;29.13;;;19.50;49.80;;;;;;6295264;28;20049;-73
2023/02/23 13:23:53;;;;;;;61.90;27.35;;;19.60;50.90;;;;;;6270288;28;20025;-67
2023/02/23 13:27:02;;;;;;;63.10;27.95;;;19.50;51.00;;;;;;6284802;28;20013;-71
2023/02/23 13:30:08;;;;;;;55.25;25.45;;;19.50;51.30;;;;;;6294957;28;20032;-68
2023/02/23 13:33:24;;;;;;;56.15;24.73;;;19.50;52.00;;;;;;6272163;28;20033;-70
2023/02/23 13:36:28;;;;;;;56.30;24.30;;;19.50;51.10;;;;;;6275754;28;20095;-68
2023/02/23 13:39:37;;;;;;;45.67;23.25;;;19.50;51.10;;;;;;6272274;28;20245;-68
2023/02/23 13:42:41;;;;;;;48.97;22.33;;;19.50;50.60;;;;;;6289678;28;20021;-71
2023/02/23 13:46:03;;;;;;;49.92;22.02;;;19.50;50.80;;;;;;6282298;28;20873;-68
2023/02/23 13:49:39;;;;;;;39.17;19.05;;;19.50;50.20;;;;;;6246717;28;20441;-76
2023/02/23 13:52:42;;;;;;;42.58;18.73;;;19.40;50.30;;;;;;6269655;28;20110;-68
2023/02/23 13:55:50;;;;;;;35.38;17.58;;;19.40;50.00;;;;;;6271541;28;20579;-70
2023/02/23 13:59:04;;;;;;;36.15;18.08;;;19.40;49.90;;;;;;6278392;28;20060;-68
2023/02/23 14:02:39;;;;;;;35.47;16.90;;;19.40;49.80;;;;;;6294911;28;20047;-68
2023/02/23 14:05:44;;;;;;;28.70;15.38;;;19.40;49.90;;;;;;6270620;28;20116;-72
2023/02/23 14:08:59;;;;;;;32.38;16.23;;;19.40;49.30;;;;;;6274806;28;20025;-69
2023/02/23 14:12:06;;;;;;;34.42;15.30;;;19.40;49.70;;;;;;6265177;28;20021;-69
2023/02/23 14:15:34;;;;;;;25.48;13.65;;;19.40;49.80;;;;;;6258588;28;20029;-71
2023/02/23 14:18:52;;;;;;;26.17;14.48;;;19.40;49.70;;;;;;6288760;28;20554;-69
2023/02/23 14:22:04;;;;;;;29.17;14.07;;;19.40;49.30;;;;;;6289744;28;20047;-70
2023/02/23 14:25:32;;;;;;;28.80;14.38;;;19.30;49.70;;;;;;6269477;28;20035;-70
2023/02/23 14:28:39;;;;;;;29.63;14.48;;;19.40;49.60;;;;;;6270060;28;20017;-73
2023/02/23 14:32:02;;;;;;;23.92;13.77;;;19.30;49.10;;;;;;6270671;28;20044;-73
2023/02/23 14:35:03;;;;;;;26.42;13.57;;;19.40;50.10;;;;;;6296077;28;20016;-67
2023/02/23 14:38:08;;;;;;;25.92;12.73;;;19.40;50.40;;;;;;6283525;28;20025;-71
2023/02/23 14:41:10;;;;;;;25.65;12.20;;;19.40;50.50;;;;;;6271443;28;20035;-74
2023/02/23 14:44:29;;;;;;;22.85;11.32;;;19.40;50.60;;;;;;6269733;28;20029;-70
2023/02/23 14:47:41;;;;;;;19.38;11.23;;;19.40;50.80;;;;;;6270894;28;20017;-73
2023/02/23 14:50:42;;;;;;;20.50;11.85;;;19.40;50.90;;;;;;6270119;28;20104;-71
2023/02/23 14:53:43;;;;;;;22.88;11.35;;;19.40;51.00;;;;;;6253287;28;20398;-71
2023/02/23 14:56:57;;;;;;;19.92;10.77;;;19.40;51.20;;;;;;6245189;28;20033;-70
2023/02/23 15:00:04;;;;;;;23.38;10.85;;;19.40;51.20;;;;;;6245263;28;20483;-70
2023/02/23 15:03:08;;;;;;;17.90;9.80;;;19.40;51.00;;;;;;6252180;28;20071;-73
2023/02/23 15:06:10;;;;;;;15.70;9.60;;;19.40;51.00;;;;;;6270254;28;20048;-71
2023/02/23 15:09:23;;;;;;;17.10;10.02;;;19.40;51.10;;;;;;6286721;28;20021;-74
2023/02/23 15:12:29;;;;;;;14.60;9.48;;;19.40;51.20;;;;;;6286212;28;20428;-74
2023/02/23 15:15:30;;;;;;;18.83;9.80;;;19.40;51.40;;;;;;6295161;28;20459;-71
2023/02/23 15:18:37;;;;;;;17.67;9.63;;;19.40;51.40;;;;;;6283674;28;20035;-70
2023/02/23 15:21:39;;;;;;;18.05;10.32;;;19.40;51.50;;;;;;6270460;28;20041;-70
2023/02/23 15:24:43;;;;;;;17.42;10.10;;;19.40;51.50;;;;;;6280268;28;20470;-73
2023/02/23 15:27:44;;;;;;;19.23;10.57;;;19.40;51.60;;;;;;6270647;28;20100;-71
2023/02/23 15:30:47;;;;;;;16.45;9.48;;;19.40;51.80;;;;;;6295485;28;20048;-70
2023/02/23 15:33:50;;;;;;;15.85;9.93;;;19.40;51.80;;;;;;6286004;28;20029;-73
2023/02/23 15:37:03;;;;;;;17.60;10.15;;;19.40;51.90;;;;;;6269089;28;20419;-73
2023/02/23 15:40:09;;;;;;;17.80;10.20;;;19.40;51.90;;;;;;6269378;28;20154;-70
2023/02/23 15:43:11;;;;;;;16.77;10.43;;;19.40;52.00;;;;;;6273482;28;20684;-73
2023/02/23 15:46:23;;;;;;;17.15;10.80;;;19.40;52.20;;;;;;6295096;28;20086;-73
2023/02/23 15:49:39;;;;;;;17.15;9.88;;;19.40;52.10;;;;;;6280421;28;20049;-71
2023/02/23 15:52:47;;;;;;;16.30;9.90;;;19.40;52.20;;;;;;6270559;28;20128;-72
2023/02/23 15:55:47;;;;;;;16.15;10.18;;;19.40;52.30;;;;;;6270409;28;20029;-71
2023/02/23 15:58:53;;;;;;;14.60;9.88;;;19.40;52.30;;;;;;6270037;28;20028;-72
2023/02/23 16:01:56;;;;;;;18.83;10.02;;;19.40;52.40;;;;;;6270558;28;20029;-71
2023/02/23 16:05:25;;;;;;;15.88;9.70;;;19.40;52.40;;;;;;6274406;28;20592;-74
2023/02/23 16:08:28;;;;;;;15.80;9.70;;;19.40;52.50;;;;;;6272987;28;20039;-73
2023/02/23 16:11:35;;;;;;;17.35;10.55;;;19.40;52.40;;;;;;6295042;28;20017;-74
2023/02/23 16:14:53;;;;;;;16.58;10.05;;;19.40;52.50;;;;;;6292570;28;20027;-72
2023/02/23 16:18:18;;;;;;;14.98;9.55;;;19.40;52.60;;;;;;6293902;28;20474;-70
2023/02/23 16:21:23;;;;;;;14.98;9.60;;;19.40;52.60;;;;;;6250456;28;20045;-71
2023/02/23 16:24:27;;;;;;;18.00;10.40;;;19.40;52.60;;;;;;6277030;28;20021;-73
2023/02/23 16:27:28;;;;;;;16.60;10.02;;;19.40;52.70;;;;;;6293141;28;20099;-70
2023/02/23 16:30:41;;;;;;;16.63;10.10;;;19.40;52.70;;;;;;6289124;28;20028;-68
2023/02/23 16:33:44;;;;;;;17.00;10.43;;;19.30;52.70;;;;;;6291419;28;20067;-70
2023/02/23 16:36:49;;;;;;;17.02;10.60;;;19.30;52.60;;;;;;6267907;28;20082;-70
2023/02/23 16:39:50;;;;;;;30.60;16.27;;;19.30;52.60;;;;;;6270568;28;20032;-70
2023/02/23 16:42:51;;;;;;;19.88;12.48;;;19.30;51.70;;;;;;6268080;28;20017;-71
2023/02/23 16:45:52;;;;;;;19.58;12.30;;;19.40;52.40;;;;;;6285442;28;20094;-75
2023/02/23 16:48:53;;;;;;;19.33;11.93;;;19.40;52.30;;;;;;6294743;28;20020;-73
2023/02/23 16:51:54;;;;;;;21.73;12.25;;;19.40;52.40;;;;;;6295034;28;20473;-74
2023/02/23 16:54:55;;;;;;;18.23;11.23;;;19.40;52.50;;;;;;6264215;28;20105;-74
2023/02/23 16:57:59;;;;;;;19.20;11.65;;;19.40;52.50;;;;;;6297218;28;20552;-78
2023/02/23 17:01:00;;;;;;;17.95;11.40;;;19.40;52.60;;;;;;6282609;28;20036;-76
2023/02/23 17:04:01;;;;;;;16.83;11.07;;;19.30;52.60;;;;;;6288026;28;20511;-71
2023/02/23 17:07:02;;;;;;;15.20;10.25;;;19.40;52.70;;;;;;6282757;28;20029;-70
2023/02/23 17:10:03;;;;;;;15.63;9.98;;;19.40;52.70;;;;;;6278293;28;20044;-70
2023/02/23 17:13:07;;;;;;;16.65;11.20;;;19.40;52.80;;;;;;6282371;28;20036;-70
2023/02/23 17:16:10;;;;;;;10.53;7.40;;;19.30;52.70;;;;;;6285049;28;20078;-70
2023/02/23 17:19:14;;;;;;;16.27;10.30;;;19.40;52.80;;;;;;6294735;28;20075;-67
2023/02/23 17:22:15;;;;;;;17.08;10.73;;;19.30;52.70;;;;;;6270363;28;20025;-67
2023/02/23 17:25:16;;;;;;;16.88;10.95;;;19.40;52.90;;;;;;6278474;28;20058;-68
2023/02/23 17:28:17;;;;;;;18.17;10.32;;;19.40;52.80;;;;;;6295068;28;20070;-67
2023/02/23 17:31:19;;;;;;;18.02;10.90;;;19.30;52.80;;;;;;6295930;28;20020;-67
2023/02/23 17:34:20;;;;;;;17.67;10.23;;;19.40;52.90;;;;;;6296170;28;20489;-67